Time;durP1;ratioP1;P1;durP2;ratioP2;P2;SDS_P1;SDS_P2;PMS_P1;PMS_P2;Temp;Humidity;BMP_temperature;BMP_pressure;BME280_temperature;BME280_humidity;BME280_pressure;Samples;Min_cycle;Max_cycle;Signal;HPM_P1;HPM_P2
2022/11/09 00:01:29;;;;;;;;;;;12.80;99.90;;;;;;5129475;27;19962;-72
2022/11/09 00:03:59;;;;;;;;;;;12.90;99.90;;;;;;5086833;28;19920;-71
2022/11/09 00:06:25;;;;;;;;;;;12.90;99.90;;;;;;5104700;28;19927;-72
2022/11/09 00:08:54;;;;;;;;;;;12.90;99.90;;;;;;5099933;28;20007;-71
2022/11/09 00:11:19;;;;;;;;;;;12.90;99.90;;;;;;5100868;28;19920;-72
2022/11/09 00:13:45;;;;;;;;;;;12.90;99.90;;;;;;5110518;28;19942;-72
2022/11/09 00:16:12;;;;;;;;;;;12.90;99.90;;;;;;5104536;28;19920;-73
2022/11/09 00:18:38;;;;;;;;;;;12.90;99.90;;;;;;5127848;27;19963;-71
2022/11/09 00:21:04;;;;;;;;;;;12.90;99.90;;;;;;5109137;28;19958;-70
2022/11/09 00:23:30;;;;;;;;;;;12.80;99.90;;;;;;5132871;27;19920;-74
2022/11/09 00:25:59;;;;;;;;;;;12.80;99.90;;;;;;5096322;28;19943;-70
2022/11/09 00:28:24;;;;;;;;;;;12.80;99.90;;;;;;5131013;27;19973;-71
2022/11/09 00:30:49;;;;;;;;;;;12.80;99.90;;;;;;5126490;27;19920;-70
2022/11/09 00:33:15;;;;;;;;;;;12.80;99.90;;;;;;5105623;28;19940;-71
2022/11/09 00:35:40;;;;;;;;;;;12.80;99.90;;;;;;5103108;28;19943;-74
2022/11/09 00:38:06;;;;;;;;;;;12.80;99.90;;;;;;5100725;28;19957;-70
2022/11/09 00:40:31;;;;;;;;;;;12.90;99.90;;;;;;5100611;28;19924;-70
2022/11/09 00:42:57;;;;;;;;;;;12.90;99.90;;;;;;5089753;28;20017;-71
2022/11/09 00:45:22;;;;;;;;;;;13.00;99.90;;;;;;5110597;28;19920;-71
2022/11/09 00:48:15;;;;;;;;;;;13.00;99.90;;;;;;5105667;28;20480;-71
2022/11/09 00:50:40;;;;;;;;;;;13.00;99.90;;;;;;5100822;28;20018;-72
2022/11/09 00:53:06;;;;;;;;;;;12.90;99.90;;;;;;5132405;27;20390;-70
2022/11/09 00:55:31;;;;;;;;;;;12.90;99.90;;;;;;5107890;28;20010;-69
2022/11/09 00:57:57;;;;;;;;;;;12.90;99.90;;;;;;5099916;28;19924;-72
2022/11/09 01:00:22;;;;;;;;;;;12.80;99.90;;;;;;5104805;28;19927;-69
2022/11/09 01:02:51;;;;;;;;;;;12.80;99.90;;;;;;5093927;28;19920;-71
2022/11/09 01:05:17;;;;;;;;;;;12.80;99.90;;;;;;5102634;27;20315;-71
2022/11/09 01:07:42;;;;;;;;;;;12.70;99.90;;;;;;5104265;27;20013;-71
2022/11/09 01:10:08;;;;;;;;;;;12.70;99.90;;;;;;5100688;27;19942;-69
2022/11/09 01:12:34;;;;;;;;;;;12.70;99.90;;;;;;5105933;27;19963;-69
2022/11/09 01:14:59;;;;;;;;;;;12.70;99.90;;;;;;5114732;27;20390;-69
2022/11/09 01:17:25;;;;;;;;;;;12.70;99.90;;;;;;5103366;27;19932;-68
2022/11/09 01:19:50;;;;;;;;;;;12.70;99.90;;;;;;5103215;28;19919;-69
2022/11/09 01:22:17;;;;;;;;;;;12.70;99.90;;;;;;5104916;28;19981;-70
2022/11/09 01:24:44;;;;;;;;;;;12.60;99.90;;;;;;5102206;27;19926;-68
2022/11/09 01:27:10;;;;;;;;;;;12.60;99.90;;;;;;5096627;28;19919;-69
2022/11/09 01:29:35;;;;;;;;;;;12.60;99.90;;;;;;5143931;27;20278;-70
2022/11/09 01:32:01;;;;;;;;;;;12.60;99.90;;;;;;5139979;27;19966;-71
2022/11/09 01:34:27;;;;;;;;;;;12.50;99.90;;;;;;5106639;28;20329;-71
2022/11/09 01:36:52;;;;;;;;;;;12.50;99.90;;;;;;5112953;27;19931;-69
2022/11/09 01:39:18;;;;;;;;;;;12.40;99.90;;;;;;5106112;27;19923;-69
2022/11/09 01:41:44;;;;;;;;;;;12.40;99.90;;;;;;5136830;27;19959;-70
2022/11/09 01:44:09;;;;;;;;;;;12.40;99.90;;;;;;5103227;28;20369;-71
2022/11/09 01:46:41;;;;;;;;;;;12.40;99.90;;;;;;5108370;27;19920;-70
2022/11/09 01:49:11;;;;;;;;;;;12.30;99.90;;;;;;5124446;27;19927;-68
2022/11/09 01:51:38;;;;;;;;;;;12.30;99.90;;;;;;5104273;27;20385;-71
2022/11/09 01:54:09;;;;;;;;;;;12.30;99.90;;;;;;5111535;27;19920;-71
2022/11/09 02:00:08;;;;;;;;;;;12.20;99.90;;;;;;5106256;27;20392;-71
2022/11/09 02:02:35;;;;;;;;;;;12.20;99.90;;;;;;5102762;28;20290;-72
2022/11/09 02:05:05;;;;;;;;;;;12.20;99.90;;;;;;5113327;27;19931;-71
2022/11/09 02:07:31;;;;;;;;;;;12.20;99.90;;;;;;5108924;27;19987;-69
2022/11/09 02:10:01;;;;;;;;;;;12.20;99.90;;;;;;5111166;27;19976;-70
2022/11/09 02:12:28;;;;;;;;;;;12.10;99.90;;;;;;5100328;28;20365;-72
2022/11/09 02:14:55;;;;;;;;;;;12.10;99.90;;;;;;5102771;28;19926;-71
2022/11/09 02:17:20;;;;;;;;;;;12.10;99.90;;;;;;5107321;27;20438;-69
2022/11/09 02:19:46;;;;;;;;;;;12.10;99.90;;;;;;5111445;27;19962;-70
2022/11/09 02:22:12;;;;;;;;;;;12.10;99.90;;;;;;5128181;27;19931;-71
2022/11/09 02:24:37;;;;;;;;;;;12.10;99.90;;;;;;5133129;27;20010;-70
2022/11/09 02:27:04;;;;;;;;;;;12.00;99.90;;;;;;5102726;27;19973;-71
2022/11/09 02:29:40;;;;;;;;;;;12.00;99.90;;;;;;5103767;27;19985;-71
2022/11/09 02:32:08;;;;;;;;;;;12.00;99.90;;;;;;5103199;28;19927;-71
2022/11/09 02:34:34;;;;;;;;;;;12.00;99.90;;;;;;5135737;27;19965;-70
2022/11/09 02:37:02;;;;;;;;;;;12.00;99.90;;;;;;5103054;27;19924;-69
2022/11/09 02:39:27;;;;;;;;;;;12.00;99.90;;;;;;5104051;27;19928;-70
2022/11/09 02:41:55;;;;;;;;;;;12.00;99.90;;;;;;5109592;27;19972;-72
2022/11/09 02:44:22;;;;;;;;;;;12.00;99.90;;;;;;5104194;27;19920;-70
2022/11/09 02:46:47;;;;;;;;;;;12.00;99.90;;;;;;5101488;27;19937;-69
2022/11/09 02:49:13;;;;;;;;;;;11.90;99.90;;;;;;5111047;27;20014;-75
2022/11/09 02:51:38;;;;;;;;;;;12.00;99.90;;;;;;5101902;28;19973;-69
2022/11/09 02:54:04;;;;;;;;;;;11.90;99.90;;;;;;5101163;28;19920;-70
2022/11/09 02:56:29;;;;;;;;;;;11.90;99.90;;;;;;5109830;27;19965;-70
2022/11/09 02:58:55;;;;;;;;;;;11.90;99.90;;;;;;5106767;27;19971;-69
2022/11/09 03:01:20;;;;;;;;;;;11.90;99.90;;;;;;5110668;27;20374;-72
2022/11/09 03:03:46;;;;;;;;;;;11.90;99.90;;;;;;5097519;27;19928;-71
2022/11/09 03:06:11;;;;;;;;;;;11.90;99.90;;;;;;5107385;27;20687;-70
2022/11/09 03:08:37;;;;;;;;;;;11.90;99.90;;;;;;5133622;27;20006;-71
2022/11/09 03:11:04;;;;;;;;;;;11.90;99.90;;;;;;5104419;27;19919;-72
2022/11/09 03:13:30;;;;;;;;;;;11.90;99.90;;;;;;5112220;27;19920;-69
2022/11/09 03:15:56;;;;;;;;;;;11.90;99.90;;;;;;5107560;28;20282;-70
2022/11/09 03:18:21;;;;;;;;;;;11.80;99.90;;;;;;5099909;28;19980;-70
2022/11/09 03:20:47;;;;;;;;;;;11.80;99.90;;;;;;5106867;27;19938;-74
2022/11/09 03:23:12;;;;;;;;;;;11.80;99.90;;;;;;5098872;27;19920;-73
2022/11/09 03:25:38;;;;;;;;;;;11.80;99.90;;;;;;5106671;27;19919;-71
2022/11/09 03:28:05;;;;;;;;;;;11.80;99.90;;;;;;5102991;28;19951;-70
2022/11/09 03:30:30;;;;;;;;;;;11.80;99.90;;;;;;5110553;28;20263;-70
2022/11/09 03:32:57;;;;;;;;;;;11.70;99.90;;;;;;5112682;28;19927;-70
2022/11/09 03:35:22;;;;;;;;;;;11.60;99.90;;;;;;5112952;28;19993;-71
2022/11/09 03:37:48;;;;;;;;;;;11.60;99.90;;;;;;5104142;28;20382;-72
2022/11/09 03:40:13;;;;;;;;;;;11.60;99.90;;;;;;5114428;27;19920;-68
2022/11/09 03:42:42;;;;;;;;;;;11.70;99.90;;;;;;5103536;28;19926;-70
2022/11/09 03:45:07;;;;;;;;;;;11.70;99.90;;;;;;5130576;27;19920;-71
2022/11/09 03:47:33;;;;;;;;;;;11.70;99.90;;;;;;5101833;28;19999;-70
2022/11/09 03:49:58;;;;;;;;;;;11.70;99.90;;;;;;5110465;27;19920;-69
2022/11/09 03:55:36;;;;;;;;;;;11.70;99.90;;;;;;5134967;27;19966;-71
2022/11/09 03:58:02;;;;;;;;;;;11.80;99.90;;;;;;5100150;28;19968;-73
2022/11/09 04:00:28;;;;;;;;;;;11.80;99.90;;;;;;5114119;28;19923;-68
2022/11/09 04:02:53;;;;;;;;;;;11.70;99.90;;;;;;5137038;27;19926;-69
2022/11/09 04:05:19;;;;;;;;;;;11.70;99.90;;;;;;5105072;28;19920;-70
2022/11/09 04:07:49;;;;;;;;;;;11.70;99.90;;;;;;5103923;28;19954;-70
2022/11/09 04:10:14;;;;;;;;;;;11.70;99.90;;;;;;5097495;28;19920;-69
2022/11/09 04:12:40;;;;;;;;;;;11.70;99.90;;;;;;5099571;28;19931;-68
2022/11/09 04:15:05;;;;;;;;;;;11.70;99.90;;;;;;5103578;28;19961;-69
2022/11/09 04:17:31;;;;;;;;;;;11.70;99.90;;;;;;5099890;28;21899;-70
2022/11/09 04:19:56;;;;;;;;;;;11.70;99.90;;;;;;5105116;28;19932;-72
2022/11/09 04:22:22;;;;;;;;;;;11.70;99.90;;;;;;5131457;27;20009;-73
2022/11/09 04:24:47;;;;;;;;;;;11.70;99.90;;;;;;5106548;28;19920;-70
2022/11/09 04:27:13;;;;;;;;;;;11.70;99.90;;;;;;5117523;28;19919;-71
2022/11/09 04:29:38;;;;;;;;;;;11.60;99.90;;;;;;5090288;28;19920;-70
2022/11/09 04:32:04;;;;;;;;;;;11.70;99.90;;;;;;5107008;28;20010;-72
2022/11/09 04:34:29;;;;;;;;;;;11.60;99.90;;;;;;5098677;28;20526;-70
2022/11/09 04:37:18;;;;;;;;;;;11.70;99.90;;;;;;5101638;28;20337;-70
2022/11/09 04:39:43;;;;;;;;;;;11.70;99.90;;;;;;5108461;28;19920;-72
2022/11/09 04:42:09;;;;;;;;;;;11.70;99.90;;;;;;5107360;27;20363;-71
2022/11/09 04:44:34;;;;;;;;;;;11.70;99.90;;;;;;5105883;28;19980;-71
2022/11/09 04:47:00;;;;;;;;;;;11.70;99.90;;;;;;5111002;27;19934;-71
2022/11/09 04:49:25;;;;;;;;;;;11.70;99.90;;;;;;5142163;27;19924;-71
2022/11/09 04:51:51;;;;;;;;;;;11.70;99.90;;;;;;5114566;27;19977;-72
2022/11/09 04:54:16;;;;;;;;;;;11.70;99.90;;;;;;5111888;27;19969;-71
2022/11/09 04:56:41;;;;;;;;;;;11.70;99.90;;;;;;5105475;28;20007;-70
2022/11/09 04:59:07;;;;;;;;;;;11.60;99.90;;;;;;5109824;27;19924;-71
2022/11/09 05:01:32;;;;;;;;;;;11.60;99.90;;;;;;5115071;27;19931;-68
2022/11/09 05:03:58;;;;;;;;;;;11.60;99.90;;;;;;5088096;28;19927;-67
2022/11/09 05:06:33;;;;;;;;;;;11.50;99.90;;;;;;5102397;27;19920;-71
2022/11/09 05:08:59;;;;;;;;;;;11.50;99.90;;;;;;5096911;28;20413;-72
2022/11/09 05:11:25;;;;;;;;;;;11.50;99.90;;;;;;5114211;27;19920;-68
2022/11/09 05:13:50;;;;;;;;;;;11.50;99.90;;;;;;5105271;28;20380;-71
2022/11/09 05:16:16;;;;;;;;;;;11.50;99.90;;;;;;5100696;27;19973;-71
2022/11/09 05:18:42;;;;;;;;;;;11.50;99.90;;;;;;5106403;27;19976;-71
2022/11/09 05:21:07;;;;;;;;;;;11.50;99.90;;;;;;5108503;28;19980;-72
2022/11/09 05:26:17;;;;;;;;;;;11.40;99.90;;;;;;5137691;27;20382;-71
2022/11/09 05:28:43;;;;;;;;;;;11.50;99.90;;;;;;5102774;27;19927;-72
2022/11/09 05:31:09;;;;;;;;;;;11.40;99.90;;;;;;5101539;27;19927;-70
2022/11/09 05:33:35;;;;;;;;;;;11.50;99.90;;;;;;5101149;27;19920;-69
2022/11/09 05:36:00;;;;;;;;;;;11.40;99.90;;;;;;5109552;28;19928;-70
2022/11/09 05:38:26;;;;;;;;;;;11.40;99.90;;;;;;5097303;28;20397;-69
2022/11/09 05:40:51;;;;;;;;;;;11.40;99.90;;;;;;5109244;28;19933;-70
2022/11/09 05:43:17;;;;;;;;;;;11.40;99.90;;;;;;5096587;28;19927;-71
2022/11/09 05:45:43;;;;;;;;;;;11.30;99.90;;;;;;5111093;28;20011;-71
2022/11/09 05:48:09;;;;;;;;;;;11.30;99.90;;;;;;5098475;28;19965;-71
2022/11/09 05:50:34;;;;;;;;;;;11.30;99.90;;;;;;5114912;28;19920;-71
2022/11/09 05:53:00;;;;;;;;;;;11.30;99.90;;;;;;5112227;28;19920;-71
2022/11/09 05:55:26;;;;;;;;;;;11.30;99.90;;;;;;5094921;28;19920;-70
2022/11/09 05:57:52;;;;;;;;;;;11.30;99.90;;;;;;5100067;28;19928;-71
2022/11/09 06:00:17;;;;;;;;;;;11.20;99.90;;;;;;5114724;28;19959;-70
2022/11/09 06:02:43;;;;;;;;;;;11.20;99.90;;;;;;5114006;27;19924;-71
2022/11/09 06:05:09;;;;;;;;;;;11.20;99.90;;;;;;5124589;27;20380;-69
2022/11/09 06:07:34;;;;;;;;;;;11.20;99.90;;;;;;5146970;27;19920;-71
2022/11/09 06:09:59;;;;;;;;;;;11.20;99.90;;;;;;5112444;28;20021;-70
2022/11/09 06:12:25;;;;;;;;;;;11.10;99.90;;;;;;5104650;27;19920;-69
2022/11/09 06:14:51;;;;;;;;;;;11.10;99.90;;;;;;5105099;27;19973;-69
2022/11/09 06:17:16;;;;;;;;;;;11.10;99.90;;;;;;5135424;27;20445;-69
2022/11/09 06:19:42;;;;;;;;;;;11.20;99.90;;;;;;5122401;27;20422;-70
2022/11/09 06:22:07;;;;;;;;;;;11.20;99.90;;;;;;5094536;28;20422;-69
2022/11/09 06:24:33;;;;;;;;;;;11.20;99.90;;;;;;5127527;27;19973;-69
2022/11/09 06:26:58;;;;;;;;;;;11.30;99.90;;;;;;5100380;27;19920;-73
2022/11/09 06:29:24;;;;;;;;;;;11.30;99.90;;;;;;5103443;27;19920;-69
2022/11/09 06:31:50;;;;;;;;;;;11.30;99.90;;;;;;5099807;27;20014;-68
2022/11/09 06:34:15;;;;;;;;;;;11.40;99.90;;;;;;5114890;27;19926;-70
2022/11/09 06:36:41;;;;;;;;;;;11.40;99.90;;;;;;5106951;27;20345;-69
2022/11/09 06:39:07;;;;;;;;;;;11.40;99.90;;;;;;5101363;28;19930;-71
2022/11/09 06:41:33;;;;;;;;;;;11.30;99.90;;;;;;5094193;28;19920;-68
2022/11/09 06:43:59;;;;;;;;;;;11.30;99.90;;;;;;5103405;27;19931;-71
2022/11/09 06:46:24;;;;;;;;;;;11.30;99.90;;;;;;5111265;27;19919;-72
2022/11/09 06:48:50;;;;;;;;;;;11.30;99.90;;;;;;5109406;28;19920;-69
2022/11/09 06:51:15;;;;;;;;;;;11.20;99.90;;;;;;5125985;27;19927;-70
2022/11/09 06:57:03;;;;;;;;;;;11.10;99.90;;;;;;5097326;28;20036;-70
2022/11/09 06:59:28;;;;;;;;;;;11.10;99.90;;;;;;5110490;28;20392;-70
2022/11/09 07:01:53;;;;;;;;;;;11.10;99.90;;;;;;5107392;28;19920;-70
2022/11/09 07:04:19;;;;;;;;;;;11.00;99.90;;;;;;5116560;27;19920;-70
2022/11/09 07:06:44;;;;;;;;;;;11.00;99.90;;;;;;5112372;27;19968;-70
2022/11/09 07:09:11;;;;;;;;;;;10.90;99.90;;;;;;5105308;28;20370;-69
2022/11/09 07:11:36;;;;;;;;;;;10.90;99.90;;;;;;5109823;28;19926;-68
2022/11/09 07:14:02;;;;;;;;;;;11.00;99.90;;;;;;5141465;27;19928;-69
2022/11/09 07:16:52;;;;;;;;;;;11.00;99.90;;;;;;5110842;27;20076;-71
2022/11/09 07:19:18;;;;;;;;;;;11.00;99.90;;;;;;5095438;28;19932;-69
2022/11/09 07:21:43;;;;;;;;;;;11.10;99.90;;;;;;5110295;27;19920;-69
2022/11/09 07:24:09;;;;;;;;;;;11.00;99.90;;;;;;5097750;28;20068;-70
2022/11/09 07:27:10;;;;;;;;;;;11.00;99.90;;;;;;5113387;28;19920;-70
2022/11/09 07:29:36;;;;;;;;;;;11.10;99.90;;;;;;5107096;28;19920;-71
2022/11/09 07:32:09;;;;;;;;;;;11.10;99.90;;;;;;5101867;28;20306;-71
2022/11/09 07:34:56;;;;;;;;;;;11.10;99.90;;;;;;5099977;28;20015;-68
2022/11/09 07:37:22;;;;;;;;;;;11.10;99.90;;;;;;5113399;28;19927;-69
2022/11/09 07:39:47;;;;;;;;;;;11.10;99.90;;;;;;5102500;28;19920;-68
2022/11/09 07:42:23;;;;;;;;;;;11.20;99.90;;;;;;5107843;28;19931;-70
2022/11/09 07:44:49;;;;;;;;;;;11.20;99.90;;;;;;5111325;28;19920;-70
2022/11/09 07:47:24;;;;;;;;;;;11.20;99.90;;;;;;5113315;28;20294;-69
2022/11/09 07:49:50;;;;;;;;;;;11.20;99.90;;;;;;5110181;28;20339;-71
2022/11/09 07:52:15;;;;;;;;;;;11.30;99.90;;;;;;5112480;28;19920;-69
2022/11/09 07:54:41;;;;;;;;;;;11.30;99.90;;;;;;5114069;28;19943;-70
2022/11/09 07:57:20;;;;;;;;;;;11.30;99.90;;;;;;5108974;28;19928;-71
2022/11/09 07:59:46;;;;;;;;;;;11.30;99.90;;;;;;5101511;28;19927;-70
2022/11/09 08:02:13;;;;;;;;;;;11.30;99.90;;;;;;5138741;27;19920;-70
2022/11/09 08:04:38;;;;;;;;;;;11.40;99.90;;;;;;5112013;28;19920;-69
2022/11/09 08:07:03;;;;;;;;;;;11.40;99.90;;;;;;5104837;28;19927;-69
2022/11/09 08:09:29;;;;;;;;;;;11.50;99.90;;;;;;5073109;28;19920;-68
2022/11/09 08:12:10;;;;;;;;;;;11.40;99.90;;;;;;5091993;28;20164;-70
2022/11/09 08:14:35;;;;;;;;;;;11.50;99.90;;;;;;5079817;28;19930;-69
2022/11/09 08:17:01;;;;;;;;;;;11.50;99.90;;;;;;5082034;28;20370;-68
2022/11/09 08:19:26;;;;;;;;;;;11.60;99.90;;;;;;5127239;27;19927;-69
2022/11/09 08:21:56;;;;;;;;;;;11.60;99.90;;;;;;5087022;28;19968;-70
2022/11/09 08:24:21;;;;;;;;;;;11.70;99.90;;;;;;5098739;28;19926;-70
2022/11/09 08:26:47;;;;;;;;;;;11.60;99.90;;;;;;5097964;28;19919;-71
2022/11/09 08:29:14;;;;;;;;;;;11.70;99.90;;;;;;5069657;28;19930;-70
2022/11/09 08:31:59;;;;;;;;;;;11.70;99.90;;;;;;5097717;28;19920;-70
2022/11/09 08:34:24;;;;;;;;;;;11.70;99.90;;;;;;5097871;28;19920;-69
2022/11/09 08:36:50;;;;;;;;;;;11.80;99.90;;;;;;5093344;28;19919;-70
2022/11/09 08:39:15;;;;;;;;;;;11.80;99.90;;;;;;5078664;28;20312;-68
2022/11/09 08:45:37;;;;;;;;;;;11.90;99.90;;;;;;5104440;28;19927;-71
2022/11/09 08:48:03;;;;;;;;;;;12.00;99.90;;;;;;5092947;27;19923;-71
2022/11/09 08:50:29;;;;;;;;;;;12.00;99.90;;;;;;5081567;28;19981;-71
2022/11/09 08:52:55;;;;;;;;;;;12.10;99.90;;;;;;5081644;28;20011;-72
2022/11/09 08:55:20;;;;;;;;;;;12.10;99.90;;;;;;5094490;28;19959;-69
2022/11/09 08:57:46;;;;;;;;;;;12.10;99.90;;;;;;5094418;28;19968;-71
2022/11/09 09:00:11;;;;;;;;;;;12.20;99.90;;;;;;5113742;27;19928;-70
2022/11/09 09:02:37;;;;;;;;;;;12.30;99.90;;;;;;5097370;28;19920;-69
2022/11/09 09:05:10;;;;;;;;;;;12.30;99.90;;;;;;5123552;27;19920;-69
2022/11/09 09:07:35;;;;;;;;;;;12.30;99.90;;;;;;5084999;27;19959;-71
2022/11/09 09:10:00;;;;;;;;;;;12.40;99.90;;;;;;5107488;27;20001;-70
2022/11/09 09:12:26;;;;;;;;;;;12.50;99.90;;;;;;5105722;27;19919;-71
2022/11/09 09:14:51;;;;;;;;;;;12.50;99.90;;;;;;5103849;27;19924;-71
2022/11/09 09:17:17;;;;;;;;;;;12.50;99.90;;;;;;5115336;27;19924;-70
2022/11/09 09:19:42;;;;;;;;;;;12.50;99.90;;;;;;5106427;27;19919;-68
2022/11/09 09:25:16;;;;;;;;;;;12.60;99.90;;;;;;5107466;28;19968;-71
2022/11/09 09:27:45;;;;;;;;;;;12.60;99.90;;;;;;5105633;28;19924;-71
2022/11/09 09:30:17;;;;;;;;;;;12.60;99.90;;;;;;5111176;27;19920;-71
2022/11/09 09:32:45;;;;;;;;;;;12.60;99.90;;;;;;5140313;27;19931;-72
2022/11/09 09:35:10;;;;;;;;;;;12.70;99.90;;;;;;5109148;27;19919;-73
2022/11/09 09:37:36;;;;;;;;;;;12.70;99.90;;;;;;5108291;27;19951;-70
2022/11/09 09:40:01;;;;;;;;;;;12.80;99.90;;;;;;5132992;27;19920;-72
2022/11/09 09:42:33;;;;;;;;;;;12.80;99.90;;;;;;5107873;27;19927;-72
2022/11/09 09:48:35;;;;;;;;;;;13.00;99.90;;;;;;5102665;28;19965;-71
2022/11/09 09:51:15;;;;;;;;;;;13.10;99.90;;;;;;5103750;28;19920;-69
2022/11/09 09:53:43;;;;;;;;;;;13.30;99.90;;;;;;5133391;27;19920;-73
2022/11/09 09:56:11;;;;;;;;;;;13.30;99.90;;;;;;5102403;27;19920;-70
2022/11/09 09:58:41;;;;;;;;;;;13.30;99.90;;;;;;5087182;28;20370;-69
2022/11/09 10:01:12;;;;;;;;;;;13.30;99.90;;;;;;5104022;27;19928;-68
2022/11/09 10:03:38;;;;;;;;;;;13.30;99.90;;;;;;5096548;28;19920;-68
2022/11/09 10:06:24;;;;;;;;;;;13.30;99.90;;;;;;5100954;27;19927;-70
2022/11/09 10:09:01;;;;;;;;;;;13.30;99.90;;;;;;5104166;27;20011;-71
2022/11/09 10:11:50;;;;;;;;;;;13.30;99.90;;;;;;5130873;27;19926;-70
2022/11/09 10:14:27;;;;;;;;;;;13.30;99.90;;;;;;5090508;28;20307;-71
2022/11/09 10:17:10;;;;;;;;;;;13.40;99.90;;;;;;5137682;27;19924;-72
2022/11/09 10:19:43;;;;;;;;;;;13.50;99.90;;;;;;5100779;28;19920;-72
2022/11/09 10:22:21;;;;;;;;;;;13.60;99.90;;;;;;5101682;27;19968;-70
2022/11/09 10:24:54;;;;;;;;;;;13.60;99.90;;;;;;5104760;27;19922;-71
2022/11/09 10:27:33;;;;;;;;;;;13.60;99.90;;;;;;5098429;27;19920;-70
2022/11/09 10:30:01;;;;;;;;;;;13.60;99.90;;;;;;5107197;27;19953;-71
2022/11/09 10:32:29;;;;;;;;;;;13.60;99.90;;;;;;5105237;27;19935;-70
2022/11/09 10:35:13;;;;;;;;;;;13.60;99.90;;;;;;5102579;27;20035;-70
2022/11/09 10:37:45;;;;;;;;;;;13.60;99.90;;;;;;5096797;27;20383;-70
2022/11/09 10:40:10;;;;;;;;;;;13.50;99.90;;;;;;5133735;27;19967;-74
2022/11/09 10:42:36;;;;;;;;;;;13.50;99.90;;;;;;5101985;27;20355;-72
2022/11/09 10:45:11;;;;;;;;;;;13.50;99.90;;;;;;5129992;27;20390;-72
2022/11/09 10:48:06;;;;;;;;;;;13.50;99.90;;;;;;5081484;28;20358;-73
2022/11/09 10:50:53;;;;;;;;;;;13.50;99.90;;;;;;5134028;27;19919;-73
2022/11/09 10:53:29;;;;;;;;;;;13.60;99.90;;;;;;5078538;28;20366;-73
2022/11/09 10:55:57;;;;;;;;;;;13.60;99.90;;;;;;5098681;28;19919;-70
2022/11/09 10:58:31;;;;;;;;;;;13.70;99.90;;;;;;5100402;27;20030;-70
2022/11/09 11:01:03;;;;;;;;;;;13.70;99.90;;;;;;5099507;28;19920;-70
2022/11/09 11:03:30;;;;;;;;;;;13.60;99.90;;;;;;5088896;28;20361;-72
2022/11/09 11:06:10;;;;;;;;;;;13.60;99.90;;;;;;5102626;28;19926;-71
2022/11/09 11:08:37;;;;;;;;;;;13.70;99.90;;;;;;5101458;28;19920;-71
2022/11/09 11:11:07;;;;;;;;;;;13.80;99.90;;;;;;5106486;28;19967;-71
2022/11/09 11:13:32;;;;;;;;;;;13.70;99.90;;;;;;5085409;28;19920;-72
2022/11/09 11:18:51;;;;;;;;;;;13.60;99.90;;;;;;5100420;27;19943;-69
2022/11/09 11:21:18;;;;;;;;;;;13.60;99.90;;;;;;5134923;27;19928;-69
2022/11/09 11:23:44;;;;;;;;;;;13.50;99.90;;;;;;5132354;27;19923;-73
2022/11/09 11:26:22;;;;;;;;;;;13.50;99.90;;;;;;5081929;28;20286;-68
2022/11/09 11:28:49;;;;;;;;;;;13.50;99.90;;;;;;5130843;27;19924;-73
2022/11/09 11:31:16;;;;;;;;;;;13.40;99.90;;;;;;5086431;28;19927;-70
2022/11/09 11:33:42;;;;;;;;;;;13.30;99.90;;;;;;5086020;28;20374;-69
2022/11/09 11:36:23;;;;;;;;;;;13.20;99.90;;;;;;5103948;27;19992;-69
2022/11/09 11:39:12;;;;;;;;;;;13.20;99.90;;;;;;5097492;27;19926;-70
2022/11/09 11:41:38;;;;;;;;;;;13.10;99.90;;;;;;5132244;27;19927;-72
2022/11/09 11:44:03;;;;;;;;;;;13.10;99.90;;;;;;5100973;27;20359;-72
2022/11/09 11:46:38;;;;;;;;;;;13.20;99.90;;;;;;5103088;27;19927;-69
2022/11/09 11:49:12;;;;;;;;;;;13.30;99.90;;;;;;5106142;28;19924;-71
2022/11/09 11:51:57;;;;;;;;;;;13.40;99.90;;;;;;5094673;28;19924;-67
2022/11/09 11:54:22;;;;;;;;;;;13.40;99.90;;;;;;5116661;27;20205;-69
2022/11/09 11:56:51;;;;;;;;;;;13.50;99.90;;;;;;5131442;27;19919;-74
2022/11/09 11:59:26;;;;;;;;;;;13.60;99.90;;;;;;5094653;28;20217;-73
2022/11/09 12:01:55;;;;;;;;;;;13.70;99.90;;;;;;5103759;28;19920;-70
2022/11/09 12:04:39;;;;;;;;;;;13.60;99.90;;;;;;5098428;28;20317;-70
2022/11/09 12:07:10;;;;;;;;;;;13.60;99.90;;;;;;5083970;28;20596;-70
2022/11/09 12:09:41;;;;;;;;;;;13.60;99.90;;;;;;5091180;28;19920;-70
2022/11/09 12:12:26;;;;;;;;;;;13.60;99.90;;;;;;5089032;28;20196;-69
2022/11/09 12:15:05;;;;;;;;;;;13.60;99.90;;;;;;5101942;28;19920;-70
2022/11/09 12:17:36;;;;;;;;;;;13.60;99.90;;;;;;5080384;28;19924;-72
2022/11/09 12:20:10;;;;;;;;;;;13.60;99.90;;;;;;5085631;28;19920;-70
2022/11/09 12:22:35;;;;;;;;;;;13.70;99.90;;;;;;5114557;28;20371;-72
2022/11/09 12:25:00;;;;;;;;;;;13.70;99.90;;;;;;5089128;28;19931;-70
2022/11/09 12:27:45;;;;;;;;;;;13.80;99.90;;;;;;5088814;28;19927;-68
2022/11/09 12:30:13;;;;;;;;;;;13.80;99.90;;;;;;5078947;28;20286;-68
2022/11/09 12:32:51;;;;;;;;;;;13.80;99.90;;;;;;5108458;28;19955;-69
2022/11/09 12:35:16;;;;;;;;;;;13.70;99.90;;;;;;5116460;28;19927;-71
2022/11/09 12:37:51;;;;;;;;;;;13.70;99.90;;;;;;5079623;28;19920;-69
2022/11/09 12:40:43;;;;;;;;;;;13.60;99.90;;;;;;5111049;28;20362;-72
2022/11/09 12:43:14;;;;;;;;;;;13.60;99.90;;;;;;5081064;28;20371;-70
2022/11/09 12:45:40;;;;;;;;;;;13.60;99.90;;;;;;5084342;28;20271;-69
2022/11/09 12:48:13;;;;;;;;;;;13.50;99.90;;;;;;5114873;28;19931;-70
2022/11/09 12:50:39;;;;;;;;;;;13.50;99.90;;;;;;5086299;28;19920;-69
2022/11/09 12:53:05;;;;;;;;;;;13.50;99.90;;;;;;5081924;28;19927;-72
2022/11/09 12:55:46;;;;;;;;;;;13.50;99.90;;;;;;5113692;28;19935;-70
2022/11/09 12:58:22;;;;;;;;;;;13.50;99.90;;;;;;5093143;28;20086;-71
2022/11/09 13:00:49;;;;;;;;;;;13.50;99.90;;;;;;5082248;28;20357;-71
2022/11/09 13:03:19;;;;;;;;;;;13.50;99.90;;;;;;5113570;27;19927;-71
2022/11/09 13:05:46;;;;;;;;;;;13.50;99.90;;;;;;5111833;27;19927;-71
2022/11/09 13:08:16;;;;;;;;;;;13.50;99.90;;;;;;5090921;27;20379;-73
2022/11/09 13:10:42;;;;;;;;;;;13.50;99.90;;;;;;5104671;27;20014;-73
2022/11/09 13:13:10;;;;;;;;;;;13.50;99.90;;;;;;5098737;27;20011;-73
2022/11/09 13:15:37;;;;;;;;;;;13.70;99.90;;;;;;5105305;28;20019;-67
2022/11/09 13:18:22;;;;;;;;;;;13.90;99.90;;;;;;5109726;27;19927;-69
2022/11/09 13:21:18;;;;;;;;;;;14.00;99.90;;;;;;5103253;27;19923;-69
2022/11/09 13:23:44;;;;;;;;;;;14.00;99.90;;;;;;5087937;27;19927;-73
2022/11/09 13:26:19;;;;;;;;;;;14.00;99.90;;;;;;5083260;28;20306;-69
2022/11/09 13:29:05;;;;;;;;;;;13.90;99.90;;;;;;5107874;28;19923;-68
2022/11/09 13:31:49;;;;;;;;;;;13.90;99.90;;;;;;5117010;27;19992;-69
2022/11/09 13:34:53;;;;;;;;;;;13.80;99.90;;;;;;5109501;27;20349;-68
2022/11/09 13:37:38;;;;;;;;;;;13.70;99.90;;;;;;5031432;28;19932;-68
2022/11/09 13:40:22;;;;;;;;;;;13.50;99.90;;;;;;5031218;28;20268;-68
2022/11/09 13:43:06;;;;;;;;;;;13.40;99.90;;;;;;5085655;28;19926;-67
2022/11/09 13:45:33;;;;;;;;;;;13.20;99.90;;;;;;5105279;27;19923;-71
2022/11/09 13:47:58;;;;;;;;;;;13.10;99.90;;;;;;5130827;27;20387;-68
2022/11/09 13:50:25;;;;;;;;;;;13.00;99.90;;;;;;5101028;28;19931;-67
2022/11/09 13:52:52;;;;;;;;;;;13.00;99.90;;;;;;5101098;27;20278;-68
2022/11/09 13:55:34;;;;;;;;;;;13.00;99.90;;;;;;5106124;27;20000;-72
2022/11/09 13:58:03;;;;;;;;;;;13.00;99.90;;;;;;5105331;27;19920;-69
2022/11/09 14:00:29;;;;;;;;;;;13.00;99.90;;;;;;5099956;27;19926;-70
2022/11/09 14:02:59;;;;;;;;;;;13.00;99.90;;;;;;5131509;27;19920;-68
2022/11/09 14:05:32;;;;;;;;;;;13.00;99.90;;;;;;5104784;27;19924;-68
2022/11/09 14:08:00;;;;;;;;;;;13.00;99.90;;;;;;5126284;27;20008;-69
2022/11/09 14:10:38;;;;;;;;;;;13.00;99.90;;;;;;5095090;27;20015;-68
2022/11/09 14:13:09;;;;;;;;;;;13.00;99.90;;;;;;5101097;27;20004;-67
2022/11/09 14:15:43;;;;;;;;;;;13.00;99.90;;;;;;5104265;27;20295;-68
2022/11/09 14:18:24;;;;;;;;;;;13.00;99.90;;;;;;5097081;28;20011;-69
2022/11/09 14:20:54;;;;;;;;;;;13.00;99.90;;;;;;5097848;27;19924;-73
2022/11/09 14:23:20;;;;;;;;;;;13.00;99.90;;;;;;5103846;28;20443;-69
2022/11/09 14:25:47;;;;;;;;;;;12.90;99.90;;;;;;5099802;27;19934;-70
2022/11/09 14:28:22;;;;;;;;;;;12.90;99.90;;;;;;5100912;27;19928;-70
2022/11/09 14:30:47;;;;;;;;;;;12.90;99.90;;;;;;5134316;27;20014;-68
2022/11/09 14:33:27;;;;;;;;;;;12.80;99.90;;;;;;5131527;27;20022;-70
2022/11/09 14:35:53;;;;;;;;;;;12.80;99.90;;;;;;5131219;27;19977;-69
2022/11/09 14:38:19;;;;;;;;;;;12.80;99.90;;;;;;5085825;28;19923;-70
2022/11/09 14:40:45;;;;;;;;;;;12.80;99.90;;;;;;5101984;28;19921;-67
2022/11/09 14:43:30;;;;;;;;;;;12.80;99.90;;;;;;5084934;27;20309;-69
2022/11/09 14:45:57;;;;;;;;;;;12.80;99.90;;;;;;5098463;27;19920;-69
2022/11/09 14:48:23;;;;;;;;;;;12.80;99.90;;;;;;5085539;28;19924;-70
2022/11/09 14:50:50;;;;;;;;;;;12.80;99.90;;;;;;5102261;27;20110;-70
2022/11/09 14:53:23;;;;;;;;;;;12.80;99.90;;;;;;5085618;27;19980;-70